TimeCDT,TemperatureF,Dew PointF,Humidity,Sea Level PressureIn,VisibilityMPH,Wind Direction,Wind SpeedMPH,Gust SpeedMPH,PrecipitationIn,Events,Conditions,WindDirDegrees,DateUTC
12:53 AM,55.0,35.1,47,29.67,10.0,West,8.1,-,N/A,,Clear,280,2012-10-22 05:53:00
1:53 AM,51.1,36.0,56,29.67,10.0,WNW,9.2,-,N/A,,Clear,290,2012-10-22 06:53:00
2:53 AM,51.1,37.0,59,29.67,10.0,West,5.8,-,N/A,,Clear,270,2012-10-22 07:53:00
3:53 AM,48.9,35.1,59,29.67,10.0,West,6.9,-,N/A,,Clear,260,2012-10-22 08:53:00
4:53 AM,46.9,35.1,63,29.69,10.0,West,8.1,-,N/A,,Clear,270,2012-10-22 09:53:00
5:53 AM,46.9,35.1,63,29.73,10.0,WNW,8.1,-,N/A,,Clear,290,2012-10-22 10:53:00
6:53 AM,46.9,37.9,71,29.75,10.0,NW,9.2,-,N/A,,Clear,320,2012-10-22 11:53:00
7:32 AM,48.2,42.8,82,29.86,10.0,NNW,6.9,-,N/A,,Scattered Clouds,340,2012-10-22 12:32:00
7:40 AM,50.0,44.6,82,29.86,10.0,NNW,6.9,-,N/A,,Mostly Cloudy,340,2012-10-22 12:40:00
8:53 AM,53.1,48.0,83,29.81,10.0,NNW,8.1,-,N/A,,Overcast,330,2012-10-22 13:53:00
9:07 AM,53.6,46.4,77,29.90,10.0,North,4.6,-,N/A,,Scattered Clouds,350,2012-10-22 14:07:00
9:37 AM,53.6,44.6,72,29.89,10.0,North,11.5,-,N/A,,Mostly Cloudy,10,2012-10-22 14:37:00
9:53 AM,54.0,44.1,69,29.82,10.0,North,12.7,-,N/A,,Overcast,360,2012-10-22 14:53:00
10:53 AM,55.0,48.0,77,29.84,10.0,North,9.2,-,N/A,,Overcast,360,2012-10-22 15:53:00
12:18 PM,60.8,48.2,63,29.92,10.0,Variable,4.6,-,N/A,,Scattered Clouds,0,2012-10-22 17:18:00
12:53 PM,62.1,48.9,62,29.83,10.0,NE,4.6,-,N/A,,Clear,50,2012-10-22 17:53:00
1:53 PM,66.0,48.0,52,29.81,10.0,NNW,3.5,-,N/A,,Clear,340,2012-10-22 18:53:00
2:53 PM,68.0,46.9,47,29.76,10.0,Variable,4.6,-,N/A,,Clear,0,2012-10-22 19:53:00
3:53 PM,70.0,46.9,44,29.75,10.0,Calm,Calm,-,N/A,,Clear,0,2012-10-22 20:53:00
4:53 PM,73.0,46.0,38,29.73,10.0,South,5.8,-,N/A,,Clear,180,2012-10-22 21:53:00
5:53 PM,73.0,45.0,37,29.72,10.0,South,6.9,-,N/A,,Clear,180,2012-10-22 22:53:00
6:53 PM,69.1,46.0,44,29.72,10.0,East,5.8,-,N/A,,Clear,100,2012-10-22 23:53:00
7:53 PM,64.9,45.0,48,29.72,10.0,East,5.8,-,N/A,,Clear,90,2012-10-23 00:53:00
8:53 PM,60.1,45.0,57,29.73,10.0,SE,6.9,-,N/A,,Clear,130,2012-10-23 01:53:00
9:53 PM,57.9,46.0,65,29.73,10.0,SSE,6.9,-,N/A,,Clear,150,2012-10-23 02:53:00
10:53 PM,55.0,46.0,72,29.73,10.0,Calm,Calm,-,N/A,,Clear,0,2012-10-23 03:53:00
11:53 PM,52.0,45.0,77,29.71,10.0,South,5.8,-,N/A,,Clear,170,2012-10-23 04:53:00